createdAt,value
2023-06-21T00:01:46.433Z,2.60
2023-06-21T00:06:48.468Z,2.85
2023-06-21T00:11:49.980Z,2.92
2023-06-21T00:16:51.383Z,2.83
2023-06-21T00:21:55.449Z,3.17
2023-06-21T00:26:57.174Z,3.28
2023-06-21T00:31:58.773Z,3.13
2023-06-21T00:37:01.661Z,3.10
2023-06-21T00:42:03.296Z,3.00
2023-06-21T00:47:05.702Z,3.25
2023-06-21T00:52:08.678Z,3.42
2023-06-21T00:57:13.451Z,3.42
2023-06-21T01:02:15.442Z,3.92
2023-06-21T01:07:35.692Z,3.60
2023-06-21T01:12:52.595Z,3.50
2023-06-21T01:17:57.995Z,3.75
2023-06-21T01:23:26.926Z,4.07
2023-06-21T01:28:47.401Z,4.13
2023-06-21T01:33:50.192Z,3.72
2023-06-21T01:38:58.312Z,3.42
2023-06-21T01:43:59.931Z,4.00
2023-06-21T01:49:04.419Z,4.20
2023-06-21T01:54:07.048Z,3.75
2023-06-21T01:59:09.604Z,3.55
2023-06-21T02:04:12.380Z,3.60
2023-06-21T02:09:16.471Z,4.03
2023-06-21T02:14:18.148Z,3.50
2023-06-21T02:19:19.747Z,3.17
2023-06-21T02:24:21.663Z,3.70
2023-06-21T02:29:23.315Z,3.60
2023-06-21T02:34:25.808Z,3.75
2023-06-21T02:39:28.668Z,3.95
2023-06-21T02:44:31.102Z,3.95
2023-06-21T02:49:33.054Z,3.50
2023-06-21T02:54:34.752Z,4.13
2023-06-21T02:59:37.397Z,3.83
2023-06-21T03:04:39.194Z,3.42
2023-06-21T03:09:40.658Z,3.60
2023-06-21T03:14:42.602Z,3.40
2023-06-21T03:19:45.218Z,3.80
2023-06-21T03:24:51.382Z,3.63
2023-06-21T03:29:53.018Z,4.20
2023-06-21T03:34:54.674Z,4.85
2023-06-21T03:39:56.525Z,4.65
2023-06-21T03:44:58.060Z,4.50
2023-06-21T03:49:59.604Z,4.95
2023-06-21T04:17:37.592Z,4.47
2023-06-21T04:22:40.727Z,4.75
2023-06-21T04:27:57.672Z,4.93
2023-06-21T04:32:59.774Z,5.22
2023-06-21T04:38:09.737Z,5.40
2023-06-21T04:43:18.205Z,5.13
2023-06-21T04:48:22.556Z,5.20
2023-06-21T04:53:49.261Z,5.03
2023-06-21T04:58:51.549Z,4.82
2023-06-21T05:03:53.155Z,5.22
2023-06-21T05:08:54.847Z,5.78
2023-06-21T05:13:56.642Z,6.45
2023-06-21T05:18:58.432Z,5.88
2023-06-21T05:24:03.186Z,6.05
2023-06-21T05:29:04.687Z,5.43
2023-06-21T05:34:06.315Z,5.85
2023-06-21T05:39:07.910Z,6.60
2023-06-21T05:44:09.864Z,5.57
2023-06-21T05:49:11.562Z,6.00
2023-06-21T05:54:15.348Z,6.40
2023-06-21T05:59:20.162Z,6.25
2023-06-21T06:04:22.011Z,5.90
2023-06-21T06:09:24.474Z,6.60
2023-06-21T06:14:26.601Z,5.57
2023-06-21T06:19:28.120Z,6.47
2023-06-21T06:24:32.407Z,6.15
2023-06-21T06:29:41.688Z,6.22
2023-06-21T06:34:43.486Z,5.85
2023-06-21T06:39:46.581Z,6.78
2023-06-21T06:44:48.396Z,6.45
2023-06-21T06:49:50.020Z,5.90
2023-06-21T06:54:52.419Z,6.35
2023-06-21T06:59:54.088Z,6.32
2023-06-21T07:04:55.563Z,6.00
2023-06-21T07:09:58.855Z,5.68
2023-06-21T07:15:00.611Z,5.88
2023-06-21T07:20:02.394Z,5.88
2023-06-21T07:25:04.620Z,4.68
2023-06-21T07:30:07.252Z,5.03
2023-06-21T07:35:12.013Z,5.13
2023-06-21T07:40:14.591Z,5.50
2023-06-21T07:45:22.598Z,4.82
2023-06-21T07:50:24.188Z,4.68
2023-06-21T07:55:25.894Z,4.93
2023-06-21T08:00:27.807Z,4.45
2023-06-21T08:05:29.840Z,4.50
2023-06-21T08:10:31.670Z,3.95
2023-06-21T08:15:33.217Z,4.70
2023-06-21T08:20:34.997Z,4.20
2023-06-21T08:25:36.934Z,4.60
2023-06-21T08:47:22.813Z,4.95
2023-06-21T08:58:13.935Z,4.13
2023-06-21T09:09:21.611Z,5.07
2023-06-21T09:14:43.399Z,5.78
2023-06-21T09:20:06.972Z,5.18
2023-06-21T09:32:28.317Z,5.20
2023-06-21T09:37:52.549Z,6.10
2023-06-21T10:06:26.522Z,5.35
2023-06-21T10:29:25.436Z,5.85
2023-06-21T10:40:45.192Z,5.47
2023-06-21T11:02:47.348Z,5.70
2023-06-21T12:02:01.364Z,6.80
2023-06-21T12:13:44.443Z,5.90
2023-06-21T12:24:27.817Z,6.13
2023-06-21T12:29:38.661Z,6.22
2023-06-21T12:34:49.281Z,5.82
2023-06-21T13:03:14.928Z,4.75
2023-06-21T13:08:28.376Z,5.25
2023-06-21T13:19:53.136Z,4.88
2023-06-21T13:25:06.426Z,4.30
2023-06-21T14:24:42.996Z,4.82
2023-06-21T14:30:11.322Z,3.65
2023-06-21T14:41:19.778Z,4.03
2023-06-21T14:52:09.103Z,4.15
2023-06-21T15:19:45.723Z,3.80
2023-06-21T15:25:33.089Z,4.25
2023-06-21T15:42:20.444Z,4.20
2023-06-21T15:47:22.293Z,4.00
2023-06-21T15:58:07.453Z,3.97
2023-06-21T16:09:28.118Z,3.80
2023-06-21T16:14:48.872Z,3.75
2023-06-21T16:20:32.134Z,3.30
2023-06-21T16:31:53.825Z,4.03
2023-06-21T16:37:06.680Z,3.50
2023-06-21T16:42:24.478Z,3.95
2023-06-21T16:48:22.899Z,3.55
2023-06-21T17:00:38.731Z,3.10
2023-06-21T17:05:46.170Z,3.70
2023-06-21T17:11:08.901Z,3.07
2023-06-21T17:16:27.047Z,3.22
2023-06-21T17:21:28.729Z,3.35
2023-06-21T17:26:40.940Z,4.00
2023-06-21T17:31:49.785Z,3.30
2023-06-21T17:42:44.170Z,3.73
2023-06-21T17:47:46.414Z,3.42
2023-06-21T17:52:48.170Z,3.72
2023-06-21T17:57:49.922Z,3.13
2023-06-21T18:02:56.867Z,3.38
2023-06-21T18:08:04.386Z,2.92
2023-06-21T18:13:06.228Z,3.65
2023-06-21T18:18:11.216Z,3.67
2023-06-21T18:39:06.077Z,3.40
2023-06-21T18:44:08.199Z,3.22
2023-06-21T18:49:13.247Z,3.03
2023-06-21T18:54:15.006Z,3.58
2023-06-21T18:59:27.960Z,3.67
2023-06-21T19:04:47.551Z,3.00
2023-06-21T19:09:52.162Z,3.60
2023-06-21T19:14:56.291Z,3.50
2023-06-21T19:19:58.757Z,3.67
2023-06-21T19:25:24.841Z,3.58
2023-06-21T19:30:29.549Z,3.25
2023-06-21T19:35:32.956Z,3.45
2023-06-21T19:40:34.880Z,3.17
2023-06-21T19:45:54.477Z,3.35
2023-06-21T19:51:01.193Z,3.88
2023-06-21T19:56:06.151Z,3.58
2023-06-21T20:01:08.240Z,3.00
2023-06-21T20:06:09.891Z,3.40
2023-06-21T20:11:17.445Z,3.60
2023-06-21T20:16:30.909Z,3.67
2023-06-21T20:21:46.306Z,3.08
2023-06-21T20:26:52.260Z,3.50
2023-06-21T20:31:56.208Z,3.25
2023-06-21T20:36:57.816Z,3.60
2023-06-21T20:42:03.050Z,3.10
2023-06-21T20:47:11.554Z,3.70
2023-06-21T20:52:16.497Z,3.92
2023-06-21T20:57:18.342Z,4.00
2023-06-21T21:02:24.219Z,3.65
2023-06-21T21:07:25.702Z,4.00
2023-06-21T21:12:43.585Z,3.63
2023-06-21T21:18:21.457Z,3.65
2023-06-21T21:23:27.552Z,3.80
2023-06-21T21:28:37.618Z,3.97
2023-06-21T21:33:41.573Z,3.63
2023-06-21T21:38:49.196Z,4.03
2023-06-21T21:44:03.473Z,3.75
2023-06-21T21:49:06.134Z,4.10
2023-06-21T21:54:10.561Z,4.55
2023-06-21T21:59:23.941Z,4.47
2023-06-21T22:04:38.834Z,4.53
2023-06-21T22:09:40.698Z,4.22
2023-06-21T22:14:42.407Z,4.78
2023-06-21T22:19:44.184Z,4.35
2023-06-21T22:24:46.145Z,4.10
2023-06-21T22:29:48.102Z,5.18
2023-06-21T22:34:52.857Z,4.50
2023-06-21T22:40:01.956Z,4.03
2023-06-21T22:45:22.230Z,4.30
2023-06-21T22:50:24.229Z,4.25
2023-06-21T22:55:26.133Z,4.68
2023-06-21T23:00:31.728Z,4.45
2023-06-21T23:10:59.246Z,4.63
2023-06-21T23:16:11.377Z,4.28
2023-06-21T23:21:13.952Z,4.30
2023-06-21T23:26:15.891Z,4.47
2023-06-21T23:31:22.524Z,4.38
2023-06-21T23:36:33.619Z,4.70
2023-06-21T23:41:35.757Z,3.70
2023-06-21T23:57:08.627Z,4.50
